createdAt,value
2018-07-20T00:01:19.100Z,8.80
2018-07-20T00:03:49.617Z,8.17
2018-07-20T00:06:19.972Z,13.07
2018-07-20T00:08:50.224Z,9.27
2018-07-20T00:11:20.582Z,10.10
2018-07-20T00:13:51.068Z,9.40
2018-07-20T00:16:21.209Z,9.73
2018-07-20T00:18:51.102Z,8.60
2018-07-20T00:21:21.083Z,10.10
2018-07-20T00:23:50.953Z,9.90
2018-07-20T00:26:20.819Z,9.93
2018-07-20T00:28:50.808Z,9.70
2018-07-20T00:31:20.907Z,10.43
2018-07-20T00:33:50.740Z,10.27
2018-07-20T00:36:20.674Z,10.63
2018-07-20T00:38:50.411Z,10.47
2018-07-20T00:41:20.791Z,10.23
2018-07-20T00:43:50.716Z,12.00
2018-07-20T00:46:21.016Z,10.20
2018-07-20T00:48:50.908Z,11.60
2018-07-20T00:51:20.973Z,14.20
2018-07-20T00:53:50.817Z,11.67
2018-07-20T00:56:20.928Z,10.77
2018-07-20T00:58:51.110Z,13.73
2018-07-20T01:01:21.200Z,11.03
2018-07-20T01:03:51.289Z,11.20
2018-07-20T01:06:21.676Z,11.13
2018-07-20T01:08:51.612Z,10.33
2018-07-20T01:11:22.101Z,10.43
2018-07-20T01:13:52.045Z,11.33
2018-07-20T01:16:21.993Z,11.60
2018-07-20T01:18:51.935Z,11.07
2018-07-20T01:21:22.283Z,13.13
2018-07-20T01:23:52.355Z,13.93
2018-07-20T01:26:22.482Z,13.97
2018-07-20T01:28:52.397Z,12.67
2018-07-20T01:31:22.479Z,13.73
2018-07-20T01:33:52.697Z,12.60
2018-07-20T01:36:22.676Z,12.33
2018-07-20T01:38:52.881Z,11.80
2018-07-20T01:41:23.309Z,12.50
2018-07-20T01:43:53.184Z,13.37
2018-07-20T01:46:23.111Z,13.17
2018-07-20T01:48:53.044Z,14.10
2018-07-20T01:51:22.940Z,13.63
2018-07-20T01:53:52.951Z,14.90
2018-07-20T01:56:22.856Z,14.30
2018-07-20T01:58:53.039Z,14.83
2018-07-20T02:01:22.885Z,14.83
2018-07-20T02:03:53.257Z,15.10
2018-07-20T02:06:23.192Z,14.63
2018-07-20T02:08:54.036Z,14.90
2018-07-20T02:11:23.940Z,15.73
2018-07-20T02:13:53.985Z,14.90
2018-07-20T02:16:23.971Z,14.93
2018-07-20T02:18:54.133Z,15.17
2018-07-20T02:21:24.377Z,15.30
2018-07-20T02:23:54.712Z,15.00
2018-07-20T02:26:24.559Z,15.63
2018-07-20T02:28:55.417Z,14.40
2018-07-20T02:31:25.653Z,14.83
2018-07-20T02:33:55.578Z,14.93
2018-07-20T02:36:31.596Z,14.47
2018-07-20T02:39:01.428Z,14.23
2018-07-20T02:41:31.325Z,14.33
2018-07-20T02:44:01.281Z,13.90
2018-07-20T02:46:31.312Z,13.90
2018-07-20T02:49:01.417Z,13.53
2018-07-20T02:51:31.387Z,13.17
2018-07-20T02:54:01.459Z,14.00
2018-07-20T02:56:31.420Z,13.10
2018-07-20T02:59:01.360Z,13.27
2018-07-20T03:01:31.302Z,14.10
2018-07-20T03:04:01.387Z,15.23
2018-07-20T03:06:31.369Z,13.43
2018-07-20T03:09:01.662Z,12.97
2018-07-20T03:11:31.513Z,15.10
2018-07-20T03:14:01.857Z,13.27
2018-07-20T03:16:31.784Z,13.27
2018-07-20T03:19:02.062Z,14.07
2018-07-20T03:21:31.875Z,12.73
2018-07-20T03:24:01.966Z,14.50
2018-07-20T03:26:31.830Z,14.47
2018-07-20T03:29:01.843Z,12.23
2018-07-20T03:31:32.302Z,12.37
2018-07-20T03:34:02.757Z,12.87
2018-07-20T03:36:39.193Z,12.73
2018-07-20T03:39:10.491Z,11.23
2018-07-20T03:41:40.419Z,11.50
2018-07-20T03:44:10.340Z,12.70
2018-07-20T03:46:40.509Z,12.13
2018-07-20T03:49:10.534Z,11.57
2018-07-20T03:51:40.688Z,11.00
2018-07-20T03:54:10.573Z,10.57
2018-07-20T03:56:40.621Z,11.10
2018-07-20T03:59:10.609Z,16.83
2018-07-20T04:01:40.754Z,10.87
2018-07-20T04:04:10.981Z,12.07
2018-07-20T04:06:41.047Z,10.23
2018-07-20T04:09:11.843Z,10.43
2018-07-20T04:11:42.156Z,11.10
2018-07-20T04:14:12.112Z,11.10
2018-07-20T04:16:42.112Z,11.10
2018-07-20T04:19:11.967Z,10.93
2018-07-20T04:21:41.822Z,12.60
2018-07-20T04:24:11.824Z,13.00
2018-07-20T04:26:41.753Z,12.30
2018-07-20T04:29:11.627Z,13.87
2018-07-20T04:31:41.552Z,13.23
2018-07-20T04:34:11.572Z,13.67
2018-07-20T04:36:41.313Z,14.17
2018-07-20T04:39:13.328Z,12.43
2018-07-20T04:41:43.656Z,13.03
2018-07-20T04:44:13.617Z,13.73
2018-07-20T04:46:43.480Z,18.47
2018-07-20T04:49:13.425Z,16.13
2018-07-20T04:51:43.465Z,13.37
2018-07-20T04:54:13.487Z,13.27
2018-07-20T04:56:43.480Z,14.57
2018-07-20T04:59:13.464Z,15.63
2018-07-20T05:01:43.332Z,13.83
2018-07-20T05:04:13.309Z,14.80
2018-07-20T05:06:43.398Z,16.23
2018-07-20T05:09:13.417Z,17.80
2018-07-20T05:11:43.165Z,18.17
2018-07-20T05:14:13.247Z,18.83
2018-07-20T05:16:43.200Z,17.83
2018-07-20T05:19:13.594Z,13.93
2018-07-20T05:21:43.569Z,18.00
2018-07-20T05:24:13.651Z,15.13
2018-07-20T05:26:43.897Z,17.67
2018-07-20T05:29:13.988Z,15.40
2018-07-20T05:31:44.019Z,15.10
2018-07-20T05:34:13.913Z,14.53
2018-07-20T05:36:43.724Z,15.00
2018-07-20T05:39:13.468Z,14.57
2018-07-20T05:41:43.352Z,14.50
2018-07-20T05:44:13.534Z,15.90
2018-07-20T05:46:43.513Z,17.10
2018-07-20T05:49:13.852Z,14.27
2018-07-20T05:51:45.036Z,17.50
2018-07-20T05:54:15.028Z,18.17
2018-07-20T05:56:44.885Z,14.87
2018-07-20T05:59:14.977Z,17.63
2018-07-20T06:01:44.947Z,15.57
2018-07-20T06:04:14.901Z,14.23
2018-07-20T06:06:45.084Z,21.73
2018-07-20T06:09:15.129Z,17.90
2018-07-20T06:11:45.109Z,16.03
2018-07-20T06:14:15.282Z,14.77
2018-07-20T06:16:45.439Z,15.57
2018-07-20T06:19:16.144Z,15.67
2018-07-20T06:21:46.109Z,16.73
2018-07-20T06:24:16.259Z,14.77
2018-07-20T06:26:46.110Z,14.90
2018-07-20T06:29:17.379Z,15.37
2018-07-20T06:31:47.580Z,16.73
2018-07-20T06:34:17.539Z,15.47
2018-07-20T06:36:47.474Z,15.57
2018-07-20T06:39:17.640Z,14.53
2018-07-20T06:41:47.496Z,15.37
2018-07-20T06:44:17.568Z,15.37
2018-07-20T06:46:47.508Z,14.83
2018-07-20T06:49:18.436Z,16.33
2018-07-20T06:51:48.579Z,16.07
2018-07-20T06:54:18.763Z,15.07
2018-07-20T06:56:48.745Z,14.10
2018-07-20T06:59:18.641Z,14.20
2018-07-20T07:01:48.573Z,14.57
2018-07-20T07:04:18.869Z,15.13
2018-07-20T07:06:48.836Z,15.40
2018-07-20T07:09:18.891Z,15.97
2018-07-20T07:11:49.059Z,13.47
2018-07-20T07:14:19.033Z,15.33
2018-07-20T07:16:49.001Z,13.53
2018-07-20T07:19:19.045Z,16.80
2018-07-20T07:21:49.091Z,13.93
2018-07-20T07:24:18.994Z,17.10
2018-07-20T07:26:49.292Z,13.27
2018-07-20T07:29:19.266Z,12.63
2018-07-20T07:31:49.357Z,14.67
2018-07-20T07:34:19.199Z,13.67
2018-07-20T07:36:49.044Z,12.83
2018-07-20T07:39:18.893Z,12.13
2018-07-20T07:41:48.787Z,13.57
2018-07-20T07:44:18.737Z,15.93
2018-07-20T07:46:48.635Z,14.23
2018-07-20T07:49:18.765Z,19.17
2018-07-20T07:51:48.883Z,13.70
2018-07-20T07:54:18.873Z,12.93
2018-07-20T07:56:48.629Z,13.60
2018-07-20T07:59:18.630Z,13.87
2018-07-20T08:01:48.657Z,13.33
2018-07-20T08:04:18.615Z,13.80
2018-07-20T08:06:48.599Z,14.77
2018-07-20T08:09:18.488Z,14.53
2018-07-20T08:11:48.592Z,14.27
2018-07-20T08:14:18.294Z,11.83
2018-07-20T08:16:48.496Z,14.20
2018-07-20T08:19:18.319Z,12.83
2018-07-20T08:21:48.486Z,12.20
2018-07-20T08:24:18.355Z,12.47
2018-07-20T08:26:48.459Z,12.73
2018-07-20T08:29:18.481Z,12.20
2018-07-20T08:31:48.781Z,13.17
2018-07-20T08:34:19.147Z,14.07
2018-07-20T08:36:48.922Z,13.87
2018-07-20T08:39:18.855Z,14.17
2018-07-20T08:41:48.915Z,14.60
2018-07-20T08:44:18.804Z,15.47
2018-07-20T08:46:48.613Z,13.57
2018-07-20T08:49:18.613Z,13.07
2018-07-20T08:51:48.699Z,14.87
2018-07-20T08:54:19.098Z,20.23
2018-07-20T08:56:49.065Z,17.97
2018-07-20T08:59:19.206Z,14.80
2018-07-20T09:01:49.072Z,16.20
2018-07-20T09:04:18.868Z,15.43
2018-07-20T09:06:48.856Z,13.70
2018-07-20T09:09:18.718Z,14.50
2018-07-20T09:11:48.646Z,21.23
2018-07-20T09:14:18.774Z,15.70
2018-07-20T09:16:49.010Z,14.43
2018-07-20T09:19:18.974Z,13.80
2018-07-20T09:21:48.868Z,14.30
2018-07-20T09:24:18.911Z,13.00
2018-07-20T09:26:48.987Z,13.93
2018-07-20T09:29:18.966Z,14.10
2018-07-20T09:31:49.002Z,14.67
2018-07-20T09:34:18.868Z,14.47
2018-07-20T09:36:48.718Z,13.53
2018-07-20T09:39:18.502Z,14.20
2018-07-20T09:41:48.416Z,16.13
2018-07-20T09:44:18.477Z,13.37
2018-07-20T09:46:48.511Z,14.27
2018-07-20T09:49:18.594Z,13.87
2018-07-20T09:51:48.734Z,13.53
2018-07-20T09:54:18.764Z,14.07
2018-07-20T09:56:48.734Z,13.40
2018-07-20T09:59:18.827Z,15.87
2018-07-20T10:01:48.920Z,12.90
2018-07-20T10:04:19.065Z,16.03
2018-07-20T10:06:48.935Z,13.67
2018-07-20T10:09:19.059Z,14.17
2018-07-20T10:11:48.771Z,13.80
2018-07-20T10:14:18.712Z,13.37
2018-07-20T10:16:48.835Z,16.53
2018-07-20T10:19:19.365Z,14.90
2018-07-20T10:21:49.458Z,13.07
2018-07-20T10:24:19.492Z,13.10
2018-07-20T10:26:49.473Z,12.50
2018-07-20T10:29:19.450Z,12.63
2018-07-20T10:31:49.581Z,13.17
2018-07-20T10:34:19.669Z,12.90
2018-07-20T10:36:50.319Z,14.13
2018-07-20T10:39:21.922Z,12.97
2018-07-20T10:41:52.284Z,12.10
2018-07-20T10:44:22.106Z,12.37
2018-07-20T10:46:51.912Z,11.90
2018-07-20T10:49:21.773Z,11.63
2018-07-20T10:51:51.765Z,11.57
2018-07-20T10:54:21.853Z,12.47
2018-07-20T10:56:51.843Z,11.73
2018-07-20T10:59:22.032Z,13.37
2018-07-20T11:01:51.941Z,11.40
2018-07-20T11:04:22.003Z,11.73
2018-07-20T11:06:51.817Z,11.57
2018-07-20T11:09:21.817Z,14.13
2018-07-20T11:11:51.952Z,12.57
2018-07-20T11:14:22.111Z,11.47
2018-07-20T11:16:52.024Z,11.97
2018-07-20T11:19:22.163Z,11.27
2018-07-20T11:21:52.144Z,11.43
2018-07-20T11:24:22.047Z,13.53
2018-07-20T11:26:52.012Z,10.83
2018-07-20T11:29:22.147Z,15.67
2018-07-20T11:31:52.077Z,11.20
2018-07-20T11:34:21.807Z,13.17
2018-07-20T11:36:52.213Z,11.80
2018-07-20T11:39:21.943Z,12.00
2018-07-20T11:41:51.776Z,11.90
2018-07-20T11:44:22.404Z,11.67
2018-07-20T11:46:52.151Z,12.73
2018-07-20T11:49:22.139Z,11.03
2018-07-20T11:51:51.854Z,13.27
2018-07-20T11:54:21.817Z,10.37
2018-07-20T11:56:51.478Z,10.67
2018-07-20T11:59:21.229Z,10.70
2018-07-20T12:01:50.945Z,11.13
2018-07-20T12:04:20.910Z,10.20
2018-07-20T12:06:51.641Z,10.33
2018-07-20T12:09:21.628Z,10.43
2018-07-20T12:11:51.431Z,12.17
2018-07-20T12:14:21.384Z,15.30
2018-07-20T12:16:51.059Z,11.73
2018-07-20T12:19:20.738Z,10.57
2018-07-20T12:21:51.645Z,17.50
2018-07-20T12:24:21.665Z,13.53
2018-07-20T12:26:51.605Z,10.53
2018-07-20T12:29:21.541Z,9.93
2018-07-20T12:31:51.700Z,10.67
2018-07-20T12:34:21.453Z,10.93
2018-07-20T12:36:51.295Z,10.47
2018-07-20T12:39:21.112Z,13.37
2018-07-20T12:41:50.939Z,9.57
2018-07-20T12:44:21.091Z,10.17
2018-07-20T12:46:50.842Z,10.33
2018-07-20T12:49:20.652Z,11.77
2018-07-20T12:51:50.315Z,13.60
2018-07-20T12:54:20.011Z,11.37
2018-07-20T12:56:50.753Z,11.37
2018-07-20T12:59:20.442Z,10.33
2018-07-20T13:01:50.288Z,10.77
2018-07-20T13:04:20.106Z,10.43
2018-07-20T13:06:49.928Z,10.00
2018-07-20T13:09:19.705Z,11.40
2018-07-20T13:11:49.398Z,10.97
2018-07-20T13:14:19.148Z,9.60
2018-07-20T13:16:48.808Z,9.97
2018-07-20T13:19:18.549Z,10.87
2018-07-20T13:21:48.261Z,10.13
2018-07-20T13:24:18.035Z,11.17
2018-07-20T13:26:48.599Z,9.60
2018-07-20T13:29:18.327Z,10.33
2018-07-20T13:31:47.987Z,13.17
2018-07-20T13:34:17.792Z,10.37
2018-07-20T13:36:47.555Z,9.60
2018-07-20T13:39:17.970Z,11.00
2018-07-20T13:41:47.951Z,9.40
2018-07-20T13:44:17.665Z,13.00
2018-07-20T13:46:47.399Z,9.03
2018-07-20T13:49:17.071Z,10.87
2018-07-20T13:51:46.847Z,10.30
2018-07-20T13:54:16.889Z,10.83
2018-07-20T13:56:46.600Z,11.13
2018-07-20T13:59:16.465Z,10.27
2018-07-20T14:01:46.216Z,11.23
2018-07-20T14:04:16.048Z,10.00
2018-07-20T14:06:45.888Z,8.93
2018-07-20T14:09:15.659Z,9.00
2018-07-20T14:11:45.701Z,11.03
2018-07-20T14:14:15.401Z,9.47
2018-07-20T14:16:45.105Z,9.33
2018-07-20T14:19:14.851Z,9.03
2018-07-20T14:21:44.550Z,9.30
2018-07-20T14:24:14.613Z,17.37
2018-07-20T14:26:44.338Z,9.77
2018-07-20T14:29:14.120Z,9.63
2018-07-20T14:31:44.072Z,11.33
2018-07-20T14:34:13.824Z,9.73
2018-07-20T14:36:43.909Z,9.23
2018-07-20T14:39:14.391Z,12.87
2018-07-20T14:41:44.518Z,8.87
2018-07-20T14:44:14.280Z,9.27
2018-07-20T14:46:43.965Z,13.93
2018-07-20T14:49:13.768Z,11.17
2018-07-20T14:51:44.590Z,10.13
2018-07-20T14:54:14.368Z,19.13
2018-07-20T14:56:44.200Z,14.43
2018-07-20T14:59:13.940Z,10.30
2018-07-20T15:01:43.693Z,14.03
2018-07-20T15:04:13.724Z,10.87
2018-07-20T15:06:43.506Z,10.87
2018-07-20T15:09:13.595Z,11.93
2018-07-20T15:11:43.248Z,16.03
2018-07-20T15:14:13.205Z,12.93
2018-07-20T15:16:43.153Z,11.53
2018-07-20T15:19:12.933Z,14.43
2018-07-20T15:21:42.839Z,15.97
2018-07-20T15:24:12.600Z,12.10
2018-07-20T15:26:42.509Z,15.23
2018-07-20T15:29:12.199Z,9.60
2018-07-20T15:31:42.250Z,8.47
2018-07-20T15:34:12.232Z,10.77
2018-07-20T15:36:41.988Z,10.03
2018-07-20T15:39:12.632Z,11.70
2018-07-20T15:41:42.372Z,10.30
2018-07-20T15:44:12.125Z,16.17
2018-07-20T15:46:42.005Z,16.63
2018-07-20T15:49:11.753Z,16.63
2018-07-20T15:53:35.207Z,15.90
2018-07-20T15:54:11.216Z,17.30
2018-07-20T15:56:40.981Z,16.60
2018-07-20T15:59:10.792Z,25.30
2018-07-20T16:01:40.830Z,18.70
2018-07-20T16:04:10.916Z,13.57
2018-07-20T16:06:41.677Z,24.33
2018-07-20T16:09:13.520Z,16.57
2018-07-20T16:11:43.588Z,11.83
2018-07-20T16:14:13.304Z,14.53
2018-07-20T16:16:43.020Z,13.23
2018-07-20T16:19:12.738Z,13.90
2018-07-20T16:21:42.503Z,13.13
2018-07-20T16:24:12.211Z,14.73
2018-07-20T16:26:42.034Z,12.80
2018-07-20T16:29:11.779Z,10.47
2018-07-20T16:31:41.738Z,13.63
2018-07-20T16:34:11.836Z,13.53
2018-07-20T16:36:41.563Z,9.43
2018-07-20T16:39:11.896Z,8.47
2018-07-20T16:41:41.623Z,10.97
2018-07-20T16:44:11.626Z,10.53
2018-07-20T16:46:41.587Z,10.57
2018-07-20T16:49:11.428Z,14.40
2018-07-20T16:51:41.143Z,14.50
2018-07-20T16:54:10.885Z,9.63
2018-07-20T16:56:41.707Z,10.77
2018-07-20T16:59:12.533Z,10.73
2018-07-20T17:01:42.388Z,11.63
2018-07-20T17:04:12.155Z,12.27
2018-07-20T17:06:41.953Z,10.40
2018-07-20T17:09:12.540Z,12.40
2018-07-20T17:11:42.468Z,12.63
2018-07-20T17:14:12.236Z,12.30
2018-07-20T17:16:41.985Z,14.33
2018-07-20T17:19:12.012Z,11.30
2018-07-20T17:21:41.704Z,15.60
2018-07-20T17:24:11.401Z,15.07
2018-07-20T17:26:41.204Z,15.70
2018-07-20T17:29:10.969Z,15.90
2018-07-20T17:31:40.918Z,13.73
2018-07-20T17:34:10.766Z,18.80
2018-07-20T17:36:40.540Z,13.13
2018-07-20T17:39:12.048Z,20.47
2018-07-20T17:41:41.845Z,15.40
2018-07-20T17:44:11.803Z,17.43
2018-07-20T17:46:41.536Z,16.87
2018-07-20T17:49:11.204Z,14.47
2018-07-20T17:51:40.931Z,17.87
2018-07-20T17:54:10.704Z,14.43
2018-07-20T17:56:40.593Z,17.00
2018-07-20T17:59:10.589Z,15.83
2018-07-20T18:01:40.669Z,15.43
2018-07-20T18:04:10.504Z,12.30
2018-07-20T18:06:40.402Z,13.67
2018-07-20T18:09:10.965Z,14.37
2018-07-20T18:11:40.668Z,14.53
2018-07-20T18:14:10.636Z,16.13
2018-07-20T18:16:40.372Z,12.57
2018-07-20T18:19:10.244Z,19.17
2018-07-20T18:21:40.031Z,13.40
2018-07-20T18:24:09.810Z,14.13
2018-07-20T18:26:39.570Z,9.43
2018-07-20T18:29:09.683Z,16.33
2018-07-20T18:31:39.463Z,12.10
2018-07-20T18:34:09.314Z,14.67
2018-07-20T18:36:39.105Z,8.50
2018-07-20T18:39:10.813Z,6.97
2018-07-20T18:41:41.223Z,9.40
2018-07-20T18:44:11.312Z,9.73
2018-07-20T18:46:41.783Z,6.90
2018-07-20T18:49:11.647Z,7.07
2018-07-20T18:51:41.378Z,8.23
2018-07-20T18:54:11.150Z,7.53
2018-07-20T18:56:40.844Z,8.13
2018-07-20T18:59:11.435Z,14.27
2018-07-20T19:01:41.170Z,7.03
2018-07-20T19:04:10.908Z,11.37
2018-07-20T19:06:41.071Z,6.67
2018-07-20T19:09:11.700Z,6.70
2018-07-20T19:11:41.532Z,7.23
2018-07-20T19:14:11.227Z,8.80
2018-07-20T19:16:41.372Z,15.57
2018-07-20T19:19:11.133Z,10.53
2018-07-20T19:21:40.868Z,9.53
2018-07-20T19:24:10.660Z,8.87
2018-07-20T19:26:40.488Z,11.13
2018-07-20T19:29:10.271Z,10.20
2018-07-20T19:31:40.217Z,11.70
2018-07-20T19:34:10.175Z,10.27
2018-07-20T19:36:39.893Z,10.20
2018-07-20T19:39:11.418Z,10.30
2018-07-20T19:41:41.279Z,13.80
2018-07-20T19:44:11.020Z,11.97
2018-07-20T19:46:40.800Z,10.23
2018-07-20T19:49:10.563Z,9.10
2018-07-20T19:51:40.447Z,12.60
2018-07-20T19:54:10.137Z,12.40
2018-07-20T19:56:39.832Z,7.57
2018-07-20T19:59:09.574Z,7.07
2018-07-20T20:01:39.314Z,5.90
2018-07-20T20:04:09.084Z,6.17
2018-07-20T20:06:39.011Z,13.77
2018-07-20T20:09:10.582Z,7.67
2018-07-20T20:11:40.413Z,7.57
2018-07-20T20:14:10.277Z,11.73
2018-07-20T20:16:40.028Z,7.67
2018-07-20T20:19:09.836Z,9.57
2018-07-20T20:21:39.514Z,10.57
2018-07-20T20:24:09.311Z,6.70
2018-07-20T20:26:39.142Z,8.70
2018-07-20T20:29:08.954Z,9.73
2018-07-20T20:31:38.830Z,8.07
2018-07-20T20:34:08.702Z,6.47
2018-07-20T20:36:38.460Z,6.17
2018-07-20T20:39:11.311Z,6.60
2018-07-20T20:41:41.082Z,5.90
2018-07-20T20:44:11.158Z,7.63
2018-07-20T20:46:41.351Z,7.10
2018-07-20T20:49:11.082Z,6.13
2018-07-20T20:51:40.886Z,6.07
2018-07-20T20:54:10.834Z,8.30
2018-07-20T20:56:40.575Z,6.53
2018-07-20T20:59:10.291Z,7.07
2018-07-20T21:01:40.223Z,7.57
2018-07-20T21:04:09.967Z,7.87
2018-07-20T21:06:39.712Z,8.20
2018-07-20T21:09:10.123Z,10.63
2018-07-20T21:11:39.886Z,8.53
2018-07-20T21:14:09.854Z,8.20
2018-07-20T21:16:39.710Z,8.83
2018-07-20T21:19:09.675Z,9.37
2018-07-20T21:21:39.372Z,9.53
2018-07-20T21:24:09.291Z,8.67
2018-07-20T21:26:40.079Z,9.77
2018-07-20T21:29:10.241Z,9.97
2018-07-20T21:31:39.928Z,9.23
2018-07-20T21:34:09.921Z,9.60
2018-07-20T21:36:39.865Z,9.40
2018-07-20T21:39:11.933Z,8.63
2018-07-20T21:41:42.525Z,9.30
2018-07-20T21:44:12.951Z,8.63
2018-07-20T21:46:42.694Z,9.10
2018-07-20T21:49:12.390Z,11.63
2018-07-20T21:51:42.194Z,11.10
2018-07-20T21:54:11.888Z,8.77
2018-07-20T21:56:41.942Z,9.03
2018-07-20T21:59:12.501Z,8.07
2018-07-20T22:01:42.494Z,8.33
2018-07-20T22:04:12.235Z,8.70
2018-07-20T22:06:41.934Z,8.23
2018-07-20T22:09:12.484Z,8.27
2018-07-20T22:11:42.197Z,10.20
2018-07-20T22:14:12.298Z,9.07
2018-07-20T22:16:42.202Z,8.03
2018-07-20T22:19:12.086Z,8.37
2018-07-20T22:21:41.757Z,7.57
2018-07-20T22:24:11.494Z,9.13
2018-07-20T22:26:41.179Z,8.40
2018-07-20T22:29:11.153Z,9.40
2018-07-20T22:31:41.174Z,8.60
2018-07-20T22:34:10.884Z,10.10
2018-07-20T22:36:40.591Z,9.27
2018-07-20T22:39:12.119Z,9.37
2018-07-20T22:41:42.056Z,9.70
2018-07-20T22:44:11.994Z,10.03
2018-07-20T22:46:41.700Z,9.93
2018-07-20T22:49:11.634Z,9.90
2018-07-20T22:51:41.383Z,10.00
2018-07-20T22:54:11.303Z,8.83
2018-07-20T22:56:41.040Z,8.83
2018-07-20T22:59:10.793Z,8.57
2018-07-20T23:01:40.876Z,8.93
2018-07-20T23:04:10.672Z,9.27
2018-07-20T23:06:40.535Z,11.23
2018-07-20T23:09:11.076Z,11.33
2018-07-20T23:11:41.088Z,9.47
2018-07-20T23:14:11.026Z,9.40
2018-07-20T23:16:40.725Z,9.07
2018-07-20T23:19:10.451Z,10.23
2018-07-20T23:21:40.238Z,8.77
2018-07-20T23:24:10.308Z,9.10
2018-07-20T23:26:40.099Z,9.97
2018-07-20T23:29:11.244Z,10.67
2018-07-20T23:31:40.978Z,10.20
2018-07-20T23:34:10.673Z,9.67
2018-07-20T23:36:40.412Z,9.73
2018-07-20T23:39:11.029Z,9.63
2018-07-20T23:41:40.798Z,10.43
2018-07-20T23:44:10.715Z,9.20
2018-07-20T23:46:41.078Z,9.17
2018-07-20T23:49:10.826Z,8.60
2018-07-20T23:51:40.632Z,10.03
2018-07-20T23:54:10.786Z,9.63
2018-07-20T23:56:40.498Z,9.57
2018-07-20T23:59:10.393Z,11.80
